createdAt,value
2022-08-11T00:01:19.852Z,16.60
2022-08-11T00:03:47.756Z,16.58
2022-08-11T00:06:15.299Z,16.53
2022-08-11T00:08:43.963Z,16.53
2022-08-11T00:11:11.793Z,16.50
2022-08-11T00:13:39.616Z,16.51
2022-08-11T00:16:12.137Z,16.45
2022-08-11T00:18:40.052Z,16.44
2022-08-11T00:21:06.994Z,16.44
2022-08-11T00:23:33.828Z,16.35
2022-08-11T00:26:01.776Z,16.38
2022-08-11T00:28:29.783Z,16.37
2022-08-11T00:30:58.041Z,16.35
2022-08-11T00:33:41.114Z,16.26
2022-08-11T00:36:12.036Z,16.22
2022-08-11T00:38:39.527Z,16.21
2022-08-11T00:41:27.307Z,16.19
2022-08-11T00:44:12.558Z,16.13
2022-08-11T00:46:57.805Z,16.12
2022-08-11T00:49:31.127Z,16.09
2022-08-11T00:52:16.190Z,16.06
2022-08-11T00:55:00.510Z,16.04
2022-08-11T00:57:37.064Z,15.94
2022-08-11T01:00:15.576Z,15.93
2022-08-11T01:02:47.487Z,15.88
2022-08-11T01:05:25.919Z,15.85
2022-08-11T01:08:01.308Z,15.78
2022-08-11T01:10:48.305Z,15.74
2022-08-11T01:13:38.597Z,15.69
2022-08-11T01:16:23.625Z,15.56
2022-08-11T01:19:21.131Z,15.54
2022-08-11T01:22:06.088Z,15.53
2022-08-11T01:24:35.183Z,15.54
2022-08-11T01:27:20.191Z,15.47
2022-08-11T01:30:05.475Z,15.45
2022-08-11T01:32:52.187Z,15.45
2022-08-11T01:35:29.272Z,15.44
2022-08-11T01:38:04.884Z,15.41
2022-08-11T01:40:46.924Z,15.35
2022-08-11T01:43:31.738Z,15.19
2022-08-11T01:46:07.331Z,14.99
2022-08-11T01:48:46.096Z,15.04
2022-08-11T01:51:17.870Z,15.07
2022-08-11T01:53:44.859Z,15.11
2022-08-11T01:56:42.110Z,15.09
2022-08-11T01:59:22.207Z,15.06
2022-08-11T02:01:48.540Z,15.04
2022-08-11T02:04:33.505Z,15.02
2022-08-11T02:07:18.757Z,14.99
2022-08-11T02:10:03.063Z,15.00
2022-08-11T02:12:39.531Z,14.93
2022-08-11T02:15:20.858Z,14.85
2022-08-11T02:18:05.285Z,14.88
2022-08-11T02:20:57.779Z,14.83
2022-08-11T02:24:04.100Z,14.61
2022-08-11T02:26:28.507Z,14.46
2022-08-11T02:29:15.134Z,14.53
2022-08-11T02:32:23.895Z,14.57
2022-08-11T02:34:59.786Z,14.61
2022-08-11T02:37:33.079Z,14.45
2022-08-11T02:40:01.619Z,14.48
2022-08-11T02:42:32.743Z,14.50
2022-08-11T02:45:11.286Z,14.50
2022-08-11T02:47:51.901Z,14.48
2022-08-11T02:50:20.934Z,14.52
2022-08-11T02:53:02.493Z,14.50
2022-08-11T02:55:56.162Z,14.48
2022-08-11T02:58:34.390Z,14.48
2022-08-11T03:01:10.101Z,14.43
2022-08-11T03:03:43.986Z,14.38
2022-08-11T03:06:19.305Z,14.40
2022-08-11T03:08:51.573Z,14.39
2022-08-11T03:11:36.936Z,14.36
2022-08-11T03:14:11.569Z,14.31
2022-08-11T03:16:46.329Z,14.27
2022-08-11T03:19:31.801Z,14.21
2022-08-11T03:22:07.390Z,14.18
2022-08-11T03:24:33.720Z,14.12
2022-08-11T03:27:09.327Z,14.15
2022-08-11T03:29:39.817Z,14.10
2022-08-11T03:32:10.369Z,14.01
2022-08-11T03:34:41.223Z,13.88
2022-08-11T03:37:16.665Z,13.81
2022-08-11T03:40:04.365Z,13.79
2022-08-11T03:42:49.797Z,13.91
2022-08-11T03:45:41.299Z,13.90
2022-08-11T03:48:19.801Z,13.84
2022-08-11T03:50:55.591Z,13.65
2022-08-11T03:53:40.975Z,13.51
2022-08-11T03:56:21.355Z,13.36
2022-08-11T03:59:06.980Z,13.39
2022-08-11T04:01:54.332Z,13.43
2022-08-11T04:04:40.150Z,13.40
2022-08-11T04:07:20.270Z,13.42
2022-08-11T04:10:15.003Z,13.57
2022-08-11T04:12:54.001Z,13.65
2022-08-11T04:15:39.383Z,13.69
2022-08-11T04:18:24.365Z,13.70
2022-08-11T04:20:59.576Z,13.65
2022-08-11T04:24:34.846Z,13.72
2022-08-11T04:27:14.272Z,13.78
2022-08-11T04:30:02.181Z,13.66
2022-08-11T04:32:49.162Z,13.70
2022-08-11T04:35:33.798Z,13.72
2022-08-11T04:38:18.953Z,13.72
2022-08-11T04:41:07.865Z,13.70
2022-08-11T04:44:05.501Z,13.65
2022-08-11T04:46:44.785Z,13.61
2022-08-11T04:49:33.959Z,13.74
2022-08-11T04:52:13.281Z,13.77
2022-08-11T04:54:58.319Z,13.82
2022-08-11T04:57:54.178Z,13.65
2022-08-11T05:00:21.617Z,13.76
2022-08-11T05:02:53.995Z,13.78
2022-08-11T05:05:40.593Z,13.91
2022-08-11T05:08:41.471Z,14.17
2022-08-11T05:11:19.726Z,14.54
2022-08-11T05:13:48.096Z,15.98
2022-08-11T05:16:19.274Z,16.96
2022-08-11T05:18:47.887Z,17.68
2022-08-11T05:21:26.399Z,18.54
2022-08-11T05:24:05.196Z,19.36
2022-08-11T05:26:46.421Z,19.71
2022-08-11T05:29:36.295Z,20.16
2022-08-11T05:32:03.072Z,20.67
2022-08-11T05:34:37.955Z,20.33
2022-08-11T05:37:25.662Z,20.43
2022-08-11T05:39:55.991Z,21.05
2022-08-11T05:42:29.611Z,20.87
2022-08-11T05:44:58.410Z,20.90
2022-08-11T05:47:27.662Z,22.15
2022-08-11T05:49:54.188Z,21.90
2022-08-11T05:52:28.086Z,20.85
2022-08-11T05:55:06.050Z,21.37
2022-08-11T05:57:49.954Z,21.27
2022-08-11T06:00:21.047Z,22.40
2022-08-11T06:02:54.217Z,22.56
2022-08-11T06:05:22.437Z,22.66
2022-08-11T06:07:54.074Z,23.54
2022-08-11T06:10:30.663Z,23.98
2022-08-11T06:12:58.638Z,24.56
2022-08-11T06:15:25.568Z,24.15
2022-08-11T06:17:52.312Z,23.17
2022-08-11T06:20:20.470Z,23.09
2022-08-11T06:22:52.440Z,23.50
2022-08-11T06:25:21.851Z,25.32
2022-08-11T06:27:54.411Z,23.00
2022-08-11T06:30:33.227Z,23.26
2022-08-11T06:33:01.866Z,22.76
2022-08-11T06:35:41.375Z,24.15
2022-08-11T06:38:13.912Z,24.28
2022-08-11T06:40:40.179Z,23.86
2022-08-11T06:43:24.160Z,23.83
2022-08-11T06:46:00.508Z,24.03
2022-08-11T06:48:27.457Z,23.45
2022-08-11T06:50:59.049Z,23.95
2022-08-11T06:53:25.488Z,23.62
2022-08-11T06:55:56.858Z,22.67
2022-08-11T06:58:28.081Z,22.43
2022-08-11T07:00:56.784Z,22.31
2022-08-11T07:03:23.413Z,21.99
2022-08-11T07:05:52.817Z,21.88
2022-08-11T07:08:38.192Z,21.83
2022-08-11T07:11:33.049Z,22.02
2022-08-11T07:14:01.111Z,22.19
2022-08-11T07:16:29.663Z,22.16
2022-08-11T07:18:59.887Z,21.92
2022-08-11T07:22:00.791Z,22.12
2022-08-11T07:24:34.325Z,22.12
2022-08-11T07:27:21.536Z,22.36
2022-08-11T07:29:49.835Z,22.57
2022-08-11T07:32:20.127Z,22.75
2022-08-11T07:34:48.909Z,22.56
2022-08-11T07:37:17.270Z,22.69
2022-08-11T07:39:44.897Z,22.77
2022-08-11T07:42:13.544Z,22.92
2022-08-11T07:44:41.394Z,23.00
2022-08-11T07:47:10.983Z,23.20
2022-08-11T07:49:38.703Z,23.22
2022-08-11T07:52:05.521Z,23.25
2022-08-11T07:54:33.427Z,23.53
2022-08-11T07:57:09.065Z,23.56
2022-08-11T07:59:58.614Z,23.65
2022-08-11T08:02:23.056Z,23.86
2022-08-11T08:04:50.179Z,23.82
2022-08-11T08:07:20.675Z,23.92
2022-08-11T08:09:48.405Z,24.19
2022-08-11T08:12:16.012Z,24.22
2022-08-11T08:14:42.670Z,24.20
2022-08-11T08:17:09.705Z,24.50
2022-08-11T08:19:37.985Z,24.32
2022-08-11T08:22:38.074Z,24.61
2022-08-11T08:24:53.436Z,24.89
2022-08-11T08:27:21.019Z,25.07
2022-08-11T08:29:47.815Z,25.56
2022-08-11T08:32:16.506Z,25.48
2022-08-11T08:34:43.385Z,25.41
2022-08-11T08:37:44.888Z,25.51
2022-08-11T08:39:56.767Z,25.60
2022-08-11T08:42:25.095Z,25.55
2022-08-11T08:44:56.468Z,25.93
2022-08-11T08:47:42.636Z,26.23
2022-08-11T08:50:16.558Z,26.31
2022-08-11T08:52:47.565Z,26.34
2022-08-11T08:55:18.417Z,26.53
2022-08-11T08:57:46.142Z,26.52
2022-08-11T09:00:20.706Z,26.63
2022-08-11T09:02:49.276Z,26.97
2022-08-11T09:05:18.001Z,26.89
2022-08-11T09:07:44.923Z,26.92
2022-08-11T09:10:11.836Z,26.66
2022-08-11T09:12:39.538Z,26.58
2022-08-11T09:15:07.083Z,26.57
2022-08-11T09:17:35.748Z,26.83
2022-08-11T09:20:09.561Z,27.42
2022-08-11T09:22:38.590Z,27.00
2022-08-11T09:25:08.224Z,27.46
2022-08-11T09:27:35.341Z,26.88
2022-08-11T09:30:02.041Z,26.80
2022-08-11T09:32:28.529Z,26.97
2022-08-11T09:34:55.254Z,27.45
2022-08-11T09:37:54.945Z,27.46
2022-08-11T09:40:11.233Z,27.61
2022-08-11T09:42:39.315Z,27.44
2022-08-11T09:45:06.288Z,27.40
2022-08-11T09:47:35.062Z,27.92
2022-08-11T09:50:02.453Z,27.54
2022-08-11T09:52:31.039Z,27.63
2022-08-11T09:54:57.833Z,27.81
2022-08-11T09:57:25.608Z,28.53
2022-08-11T09:59:53.112Z,28.39
2022-08-11T10:02:42.565Z,27.97
2022-08-11T10:05:09.790Z,27.92
2022-08-11T10:07:36.169Z,27.74
2022-08-11T10:10:03.721Z,28.09
2022-08-11T10:12:34.325Z,28.00
2022-08-11T10:15:05.962Z,28.49
2022-08-11T10:17:35.686Z,28.07
2022-08-11T10:20:05.485Z,28.11
2022-08-11T10:22:33.146Z,28.06
2022-08-11T10:25:00.850Z,28.22
2022-08-11T10:27:55.192Z,28.32
2022-08-11T10:30:14.430Z,28.10
2022-08-11T10:32:59.031Z,28.50
2022-08-11T10:35:30.763Z,28.03
2022-08-11T10:38:07.783Z,28.35
2022-08-11T10:40:39.093Z,28.84
2022-08-11T10:43:05.831Z,29.00
2022-08-11T10:45:39.992Z,28.51
2022-08-11T10:48:07.099Z,27.95
2022-08-11T10:50:33.778Z,28.54
2022-08-11T10:53:01.528Z,28.25
2022-08-11T10:55:28.479Z,28.63
2022-08-11T10:58:04.238Z,28.63
2022-08-11T11:00:31.751Z,28.70
2022-08-11T11:03:22.229Z,29.03
2022-08-11T11:06:12.604Z,29.18
2022-08-11T11:08:35.333Z,28.12
2022-08-11T11:11:03.025Z,28.68
2022-08-11T11:13:30.861Z,28.81
2022-08-11T11:15:57.411Z,28.53
2022-08-11T11:18:27.847Z,28.54
2022-08-11T11:21:13.065Z,28.88
2022-08-11T11:23:58.042Z,28.91
2022-08-11T11:26:38.215Z,28.85
2022-08-11T11:29:19.275Z,28.97
2022-08-11T11:31:53.548Z,28.94
2022-08-11T11:34:20.122Z,28.72
2022-08-11T11:36:51.975Z,28.69
2022-08-11T11:39:23.472Z,29.03
2022-08-11T11:41:51.991Z,28.88
2022-08-11T11:44:20.015Z,29.05
2022-08-11T11:46:47.384Z,28.69
2022-08-11T11:49:17.221Z,29.47
2022-08-11T11:51:50.523Z,29.47
2022-08-11T11:54:17.708Z,29.12
2022-08-11T11:56:44.308Z,29.54
2022-08-11T11:59:12.231Z,29.64
2022-08-11T12:01:41.817Z,29.14
2022-08-11T12:04:15.588Z,29.76
2022-08-11T12:06:42.920Z,30.24
2022-08-11T12:09:11.973Z,29.74
2022-08-11T12:11:38.304Z,29.36
2022-08-11T12:14:10.481Z,29.88
2022-08-11T12:16:38.894Z,29.63
2022-08-11T12:19:24.478Z,29.57
2022-08-11T12:21:51.550Z,29.30
2022-08-11T12:24:29.257Z,29.29
2022-08-11T12:27:15.007Z,29.09
2022-08-11T12:29:44.468Z,29.23
2022-08-11T12:32:11.104Z,29.82
2022-08-11T12:34:37.555Z,29.40
2022-08-11T12:37:04.691Z,29.96
2022-08-11T12:40:10.727Z,30.30
2022-08-11T12:42:27.319Z,30.03
2022-08-11T12:44:55.750Z,29.74
2022-08-11T12:47:22.752Z,29.54
2022-08-11T12:49:50.534Z,29.79
2022-08-11T12:52:25.752Z,29.63
2022-08-11T12:55:13.500Z,30.07
2022-08-11T12:57:45.989Z,30.15
2022-08-11T13:00:13.072Z,29.82
2022-08-11T13:02:44.486Z,29.28
2022-08-11T13:05:14.748Z,29.78
2022-08-11T13:07:49.939Z,29.40
2022-08-11T13:10:19.202Z,29.41
2022-08-11T13:12:45.676Z,29.43
2022-08-11T13:15:14.743Z,29.23
2022-08-11T13:17:44.266Z,29.60
2022-08-11T13:20:14.365Z,29.63
2022-08-11T13:22:42.160Z,29.42
2022-08-11T13:25:09.143Z,29.61
2022-08-11T13:27:42.149Z,29.87
2022-08-11T13:30:09.062Z,29.89
2022-08-11T13:32:35.656Z,29.96
2022-08-11T13:35:01.987Z,30.07
2022-08-11T13:38:27.218Z,30.10
2022-08-11T13:40:20.393Z,29.66
2022-08-11T13:42:48.953Z,29.67
2022-08-11T13:45:15.865Z,29.96
2022-08-11T13:47:42.841Z,29.93
2022-08-11T13:50:10.607Z,30.01
2022-08-11T13:52:41.602Z,30.27
2022-08-11T13:55:10.085Z,30.34
2022-08-11T13:58:06.198Z,30.32
2022-08-11T14:00:52.560Z,30.26
2022-08-11T14:03:21.424Z,30.09
2022-08-11T14:05:49.539Z,30.12
2022-08-11T14:08:33.511Z,30.11
2022-08-11T14:11:05.239Z,29.97
2022-08-11T14:13:52.415Z,29.63
2022-08-11T14:16:42.180Z,29.75
2022-08-11T14:19:14.639Z,29.62
2022-08-11T14:21:42.936Z,29.59
2022-08-11T14:24:10.406Z,29.62
2022-08-11T14:26:41.164Z,29.85
2022-08-11T14:29:21.608Z,29.87
2022-08-11T14:32:00.381Z,29.86
2022-08-11T14:34:27.989Z,30.04
2022-08-11T14:36:56.816Z,29.68
2022-08-11T14:39:27.683Z,29.46
2022-08-11T14:42:10.009Z,29.82
2022-08-11T14:44:40.532Z,29.75
2022-08-11T14:47:23.054Z,29.74
2022-08-11T14:50:09.370Z,29.88
2022-08-11T14:52:39.063Z,29.17
2022-08-11T14:55:07.394Z,29.46
2022-08-11T14:57:55.774Z,29.72
2022-08-11T15:00:23.450Z,29.48
2022-08-11T15:02:49.915Z,29.40
2022-08-11T15:05:16.302Z,29.31
2022-08-11T15:07:43.525Z,29.20
2022-08-11T15:10:13.248Z,29.21
2022-08-11T15:12:40.832Z,29.19
2022-08-11T15:15:08.142Z,29.29
2022-08-11T15:17:42.905Z,29.18
2022-08-11T15:20:12.556Z,29.19
2022-08-11T15:22:40.587Z,29.18
2022-08-11T15:25:07.119Z,29.72
2022-08-11T15:27:34.473Z,29.29
2022-08-11T15:30:02.698Z,29.27
2022-08-11T15:32:30.385Z,29.26
2022-08-11T15:35:03.590Z,29.54
2022-08-11T15:37:33.689Z,29.36
2022-08-11T15:40:01.063Z,29.19
2022-08-11T15:42:29.131Z,28.88
2022-08-11T15:45:05.071Z,28.73
2022-08-11T15:47:41.768Z,28.75
2022-08-11T15:50:13.836Z,28.89
2022-08-11T15:53:01.265Z,29.04
2022-08-11T15:55:32.706Z,29.04
2022-08-11T15:58:01.273Z,29.19
2022-08-11T16:00:27.922Z,29.09
2022-08-11T16:02:57.467Z,28.95
2022-08-11T16:05:46.655Z,28.91
2022-08-11T16:08:15.309Z,28.92
2022-08-11T16:10:42.327Z,29.04
2022-08-11T16:13:13.365Z,29.03
2022-08-11T16:15:44.489Z,29.06
2022-08-11T16:18:14.596Z,28.89
2022-08-11T16:20:41.271Z,28.66
2022-08-11T16:23:08.331Z,28.85
2022-08-11T16:27:01.615Z,28.70
2022-08-11T16:28:23.462Z,28.58
2022-08-11T16:30:51.270Z,28.55
2022-08-11T16:33:48.527Z,28.69
2022-08-11T16:36:06.100Z,28.52
2022-08-11T16:38:36.692Z,28.59
2022-08-11T16:41:07.261Z,28.69
2022-08-11T16:43:47.283Z,28.70
2022-08-11T16:46:18.072Z,28.67
2022-08-11T16:48:46.609Z,28.50
2022-08-11T16:51:13.351Z,28.85
2022-08-11T16:54:03.498Z,28.71
2022-08-11T16:56:35.663Z,28.89
2022-08-11T16:59:03.928Z,28.73
2022-08-11T17:01:32.852Z,28.68
2022-08-11T17:04:16.865Z,28.64
2022-08-11T17:06:51.413Z,28.70
2022-08-11T17:09:21.336Z,28.62
2022-08-11T17:11:51.505Z,28.88
2022-08-11T17:14:35.489Z,28.63
2022-08-11T17:17:03.800Z,28.46
2022-08-11T17:20:41.170Z,28.29
2022-08-11T17:22:19.371Z,28.14
2022-08-11T17:24:46.616Z,28.26
2022-08-11T17:27:15.320Z,28.17
2022-08-11T17:29:53.526Z,28.09
2022-08-11T17:32:32.308Z,28.20
2022-08-11T17:35:20.068Z,28.12
2022-08-11T17:37:50.289Z,27.95
2022-08-11T17:40:19.455Z,27.96
2022-08-11T17:42:48.888Z,27.84
2022-08-11T17:45:17.666Z,27.87
2022-08-11T17:47:44.153Z,27.83
2022-08-11T17:50:17.721Z,27.78
2022-08-11T17:52:46.007Z,27.83
2022-08-11T17:55:13.416Z,27.79
2022-08-11T17:57:48.964Z,27.80
2022-08-11T18:00:15.682Z,27.66
2022-08-11T18:02:43.684Z,27.57
2022-08-11T18:05:13.499Z,27.66
2022-08-11T18:07:43.646Z,27.54
2022-08-11T18:10:11.232Z,27.60
2022-08-11T18:12:41.617Z,27.46
2022-08-11T18:15:08.163Z,27.20
2022-08-11T18:17:36.191Z,26.86
2022-08-11T18:20:04.045Z,26.58
2022-08-11T18:22:33.929Z,26.29
2022-08-11T18:25:09.145Z,26.01
2022-08-11T18:27:38.257Z,25.77
2022-08-11T18:30:05.729Z,25.60
2022-08-11T18:32:49.156Z,25.42
2022-08-11T18:35:26.053Z,25.32
2022-08-11T18:37:52.871Z,25.13
2022-08-11T18:40:22.486Z,24.95
2022-08-11T18:42:49.884Z,24.78
2022-08-11T18:45:19.527Z,24.61
2022-08-11T18:47:50.367Z,24.45
2022-08-11T18:50:37.328Z,24.32
2022-08-11T18:53:06.098Z,24.19
2022-08-11T18:55:33.475Z,24.07
2022-08-11T18:58:03.051Z,24.00
2022-08-11T19:00:30.315Z,23.87
2022-08-11T19:02:58.416Z,23.76
2022-08-11T19:06:36.689Z,23.68
2022-08-11T19:08:12.883Z,23.59
2022-08-11T19:10:40.385Z,23.51
2022-08-11T19:13:09.681Z,23.40
2022-08-11T19:15:39.293Z,23.34
2022-08-11T19:18:07.472Z,23.21
2022-08-11T19:20:37.320Z,23.11
2022-08-11T19:23:04.740Z,22.98
2022-08-11T19:25:32.805Z,22.87
2022-08-11T19:27:59.732Z,22.75
2022-08-11T19:30:26.968Z,22.67
2022-08-11T19:32:54.990Z,22.55
2022-08-11T19:35:21.502Z,22.42
2022-08-11T19:37:49.138Z,22.26
2022-08-11T19:40:16.066Z,22.12
2022-08-11T19:42:43.266Z,22.05
2022-08-11T19:45:10.074Z,22.02
2022-08-11T19:47:36.876Z,21.92
2022-08-11T19:50:05.134Z,21.83
2022-08-11T19:52:32.012Z,21.74
2022-08-11T19:54:58.940Z,21.71
2022-08-11T19:57:29.721Z,21.66
2022-08-11T19:59:56.453Z,21.56
2022-08-11T20:02:24.120Z,21.55
2022-08-11T20:04:51.021Z,21.49
2022-08-11T20:07:20.570Z,21.42
2022-08-11T20:10:05.261Z,21.32
2022-08-11T20:12:33.075Z,21.12
2022-08-11T20:15:00.052Z,20.86
2022-08-11T20:17:28.595Z,20.62
2022-08-11T20:19:57.208Z,20.57
2022-08-11T20:22:25.047Z,20.56
2022-08-11T20:24:52.524Z,20.62
2022-08-11T20:27:24.506Z,20.49
2022-08-11T20:29:52.555Z,20.50
2022-08-11T20:32:21.369Z,20.39
2022-08-11T20:34:48.142Z,20.42
2022-08-11T20:37:18.922Z,20.32
2022-08-11T20:39:50.191Z,20.28
2022-08-11T20:42:18.456Z,20.18
2022-08-11T20:44:46.084Z,19.90
2022-08-11T20:47:15.929Z,19.75
2022-08-11T20:52:30.383Z,19.62
2022-08-11T20:54:59.559Z,19.51
2022-08-11T20:57:58.621Z,19.43
2022-08-11T21:00:14.144Z,19.37
2022-08-11T21:02:40.603Z,19.33
2022-08-11T21:05:13.119Z,19.30
2022-08-11T21:07:46.970Z,19.25
2022-08-11T21:10:25.661Z,19.20
2022-08-11T21:12:55.389Z,19.09
2022-08-11T21:15:39.059Z,19.07
2022-08-11T21:18:11.907Z,19.10
2022-08-11T21:20:56.414Z,19.11
2022-08-11T21:23:24.754Z,19.13
2022-08-11T21:25:59.175Z,19.18
2022-08-11T21:28:29.550Z,19.24
2022-08-11T21:30:59.321Z,19.30
2022-08-11T21:33:28.138Z,19.42
2022-08-11T21:35:56.802Z,19.60
2022-08-11T21:38:24.216Z,19.71
2022-08-11T21:40:51.548Z,19.84
2022-08-11T21:43:18.445Z,19.98
2022-08-11T21:45:45.498Z,19.75
2022-08-11T21:48:13.007Z,19.49
2022-08-11T21:50:39.326Z,19.25
2022-08-11T21:53:05.937Z,19.26
2022-08-11T21:55:32.423Z,19.11
2022-08-11T21:58:00.139Z,18.92
2022-08-11T22:00:26.569Z,18.89
2022-08-11T22:02:53.931Z,18.76
2022-08-11T22:05:20.790Z,18.74
2022-08-11T22:07:47.250Z,18.62
2022-08-11T22:10:40.178Z,18.57
2022-08-11T22:13:00.773Z,18.51
2022-08-11T22:15:27.654Z,18.46
2022-08-11T22:17:57.913Z,18.39
2022-08-11T22:20:25.798Z,18.38
2022-08-11T22:22:55.034Z,18.10
2022-08-11T22:25:23.375Z,18.05
2022-08-11T22:27:49.681Z,18.03
2022-08-11T22:30:16.448Z,18.02
2022-08-11T22:32:43.540Z,17.94
2022-08-11T22:35:10.612Z,17.80
2022-08-11T22:37:37.872Z,17.76
2022-08-11T22:40:04.470Z,17.64
2022-08-11T22:42:43.192Z,17.62
2022-08-11T22:45:09.954Z,17.58
2022-08-11T22:47:40.711Z,17.49
2022-08-11T22:50:08.033Z,17.49
2022-08-11T22:52:37.323Z,17.47
2022-08-11T22:55:05.559Z,17.45
2022-08-11T22:57:36.890Z,17.43
2022-08-11T23:00:04.041Z,17.48
2022-08-11T23:02:30.630Z,17.47
2022-08-11T23:04:58.114Z,17.43
2022-08-11T23:07:50.416Z,17.37
2022-08-11T23:10:11.282Z,17.02
2022-08-11T23:12:38.902Z,16.99
2022-08-11T23:15:05.939Z,16.94
2022-08-11T23:17:32.447Z,16.92
2022-08-11T23:20:04.612Z,16.89
2022-08-11T23:22:49.802Z,16.95
2022-08-11T23:25:20.395Z,16.95
2022-08-11T23:27:48.119Z,16.97
2022-08-11T23:30:14.491Z,16.98
2022-08-11T23:32:47.210Z,16.95
2022-08-11T23:35:37.857Z,16.99
2022-08-11T23:38:01.874Z,16.90
2022-08-11T23:40:28.315Z,16.66
2022-08-11T23:42:55.284Z,16.58
2022-08-11T23:45:27.572Z,16.53
2022-08-11T23:47:54.077Z,16.57
2022-08-11T23:50:21.050Z,16.60
2022-08-11T23:52:47.886Z,16.66
2022-08-11T23:55:14.339Z,16.70
2022-08-11T23:57:48.816Z,16.75
